createdAt,value
2022-10-30T00:00:36.135Z,2.67
2022-10-30T00:03:04.129Z,3.77
2022-10-30T00:05:32.521Z,3.90
2022-10-30T00:08:00.734Z,3.17
2022-10-30T00:10:28.681Z,3.23
2022-10-30T00:12:56.322Z,3.70
2022-10-30T00:15:24.320Z,3.00
2022-10-30T00:17:54.068Z,3.03
2022-10-30T00:20:22.046Z,2.43
2022-10-30T00:22:49.659Z,2.47
2022-10-30T00:25:17.833Z,3.50
2022-10-30T00:27:45.474Z,2.60
2022-10-30T00:30:15.563Z,4.27
2022-10-30T00:32:43.858Z,2.93
2022-10-30T00:35:13.524Z,2.70
2022-10-30T00:37:41.353Z,2.53
2022-10-30T00:40:15.143Z,4.83
2022-10-30T00:42:43.345Z,2.87
2022-10-30T00:45:12.737Z,2.53
2022-10-30T00:47:44.174Z,3.50
2022-10-30T00:50:18.355Z,2.30
2022-10-30T00:52:52.103Z,3.00
2022-10-30T00:55:24.025Z,2.83
2022-10-30T00:57:53.131Z,2.77
2022-10-30T01:00:23.905Z,3.30
2022-10-30T01:02:52.224Z,2.47
2022-10-30T01:05:25.330Z,2.17
2022-10-30T01:07:53.224Z,2.50
2022-10-30T01:10:22.273Z,2.93
2022-10-30T01:12:52.282Z,3.87
2022-10-30T01:15:25.754Z,2.47
2022-10-30T01:18:17.753Z,2.43
2022-10-30T01:21:18.150Z,1.30
2022-10-30T01:23:56.710Z,1.77
2022-10-30T01:26:37.905Z,3.23
2022-10-30T01:29:20.724Z,1.53
2022-10-30T01:31:58.747Z,2.03
2022-10-30T01:34:39.047Z,1.67
2022-10-30T01:37:14.789Z,1.23
2022-10-30T01:39:44.688Z,1.87
2022-10-30T01:42:49.216Z,1.17
2022-10-30T01:45:27.599Z,1.40
2022-10-30T01:48:32.090Z,0.97
2022-10-30T01:51:10.746Z,1.63
2022-10-30T01:53:51.390Z,2.27
2022-10-30T01:56:28.096Z,2.17
2022-10-30T01:59:10.229Z,4.77
2022-10-30T02:01:40.165Z,2.27
2022-10-30T02:04:09.367Z,3.77
2022-10-30T02:06:38.462Z,2.17
2022-10-30T02:09:06.676Z,4.43
2022-10-30T02:11:36.568Z,2.03
2022-10-30T02:14:08.057Z,3.00
2022-10-30T02:16:40.441Z,3.80
2022-10-30T02:19:08.074Z,2.97
2022-10-30T02:21:37.530Z,3.53
2022-10-30T02:24:05.732Z,1.93
2022-10-30T02:26:33.753Z,3.17
2022-10-30T02:29:03.255Z,2.47
2022-10-30T02:31:31.452Z,2.80
2022-10-30T02:33:59.168Z,3.23
2022-10-30T02:36:28.219Z,3.40
2022-10-30T02:38:57.751Z,3.77
2022-10-30T02:41:25.704Z,3.20
2022-10-30T02:43:54.461Z,3.07
2022-10-30T02:46:22.971Z,4.10
2022-10-30T02:48:50.669Z,3.77
2022-10-30T02:51:18.752Z,4.47
2022-10-30T02:53:47.728Z,3.33
2022-10-30T02:56:17.066Z,4.63
2022-10-30T02:58:45.420Z,2.90
2022-10-30T03:01:15.388Z,2.43
2022-10-30T03:03:44.674Z,4.67
2022-10-30T03:06:15.474Z,3.00
2022-10-30T03:08:43.670Z,3.13
2022-10-30T03:11:13.454Z,3.17
2022-10-30T03:13:43.448Z,3.07
2022-10-30T03:16:12.969Z,2.50
2022-10-30T03:18:42.210Z,2.77
2022-10-30T03:21:14.629Z,3.40
2022-10-30T03:23:42.728Z,2.53
2022-10-30T03:26:11.023Z,3.63
2022-10-30T03:28:50.948Z,2.20
2022-10-30T03:31:20.111Z,2.53
2022-10-30T03:33:54.533Z,1.73
2022-10-30T03:36:22.821Z,3.20
2022-10-30T03:38:50.876Z,3.30
2022-10-30T03:41:21.746Z,3.07
2022-10-30T03:43:50.766Z,2.47
2022-10-30T03:46:18.521Z,3.33
2022-10-30T03:48:49.838Z,2.83
2022-10-30T03:51:18.264Z,1.93
2022-10-30T03:53:47.676Z,2.10
2022-10-30T03:56:15.393Z,1.90
2022-10-30T03:58:51.617Z,3.17
2022-10-30T04:01:22.603Z,2.93
2022-10-30T04:03:56.335Z,2.40
2022-10-30T04:06:25.921Z,3.27
2022-10-30T04:08:55.753Z,2.87
2022-10-30T04:11:24.611Z,2.23
2022-10-30T04:13:53.891Z,2.87
2022-10-30T04:16:21.544Z,2.90
2022-10-30T04:18:49.885Z,2.40
2022-10-30T04:21:17.638Z,3.30
2022-10-30T04:23:45.666Z,2.23
2022-10-30T04:26:15.065Z,4.33
2022-10-30T04:28:44.764Z,2.40
2022-10-30T04:31:13.743Z,2.10
2022-10-30T04:33:41.466Z,3.60
2022-10-30T04:36:09.773Z,3.70
2022-10-30T04:38:37.802Z,3.87
2022-10-30T04:41:07.754Z,2.83
2022-10-30T04:43:49.427Z,3.57
2022-10-30T04:46:18.889Z,5.30
2022-10-30T04:48:47.431Z,5.07
2022-10-30T04:51:15.996Z,4.13
2022-10-30T04:53:45.440Z,2.77
2022-10-30T04:56:16.425Z,2.87
2022-10-30T04:58:44.447Z,3.20
2022-10-30T05:01:12.230Z,4.90
2022-10-30T05:03:41.792Z,2.07
2022-10-30T05:06:21.445Z,2.53
2022-10-30T05:08:49.718Z,2.50
2022-10-30T05:11:27.657Z,2.90
2022-10-30T05:13:56.722Z,2.07
2022-10-30T05:16:24.689Z,1.83
2022-10-30T05:18:54.915Z,2.33
2022-10-30T05:21:22.907Z,4.53
2022-10-30T05:23:51.204Z,3.40
2022-10-30T05:26:20.314Z,2.83
2022-10-30T05:28:48.988Z,4.47
2022-10-30T05:31:16.648Z,2.50
2022-10-30T05:34:07.253Z,2.10
2022-10-30T05:36:36.871Z,3.27
2022-10-30T05:39:05.029Z,2.40
2022-10-30T05:41:36.693Z,1.67
2022-10-30T05:44:05.049Z,3.53
2022-10-30T05:46:34.152Z,3.43
2022-10-30T05:49:19.921Z,2.67
2022-10-30T05:51:48.140Z,2.40
2022-10-30T05:54:17.041Z,1.60
2022-10-30T05:57:00.563Z,1.57
2022-10-30T05:59:30.058Z,1.40
2022-10-30T06:01:58.260Z,4.10
2022-10-30T06:04:27.725Z,3.87
2022-10-30T06:06:55.544Z,1.60
2022-10-30T06:09:23.205Z,2.47
2022-10-30T06:11:59.673Z,2.40
2022-10-30T06:14:42.476Z,2.77
2022-10-30T06:17:10.502Z,2.70
2022-10-30T06:19:55.208Z,2.27
2022-10-30T06:22:41.553Z,2.60
2022-10-30T06:25:16.453Z,3.47
2022-10-30T06:28:05.405Z,3.57
2022-10-30T06:30:33.709Z,5.03
2022-10-30T06:33:03.451Z,2.43
2022-10-30T06:35:33.588Z,3.57
2022-10-30T06:38:01.844Z,3.73
2022-10-30T06:40:31.810Z,3.43
2022-10-30T06:43:18.163Z,2.23
2022-10-30T06:48:37.541Z,2.27
2022-10-30T06:51:07.111Z,2.50
2022-10-30T06:53:38.502Z,1.70
2022-10-30T06:56:29.256Z,2.33
2022-10-30T06:59:11.417Z,2.97
2022-10-30T07:02:06.985Z,10.80
2022-10-30T07:04:46.009Z,4.17
2022-10-30T07:07:15.940Z,4.57
2022-10-30T07:09:44.217Z,3.97
2022-10-30T07:12:13.383Z,2.40
2022-10-30T07:15:00.296Z,2.47
2022-10-30T07:17:36.216Z,2.40
2022-10-30T07:20:11.453Z,2.37
2022-10-30T07:22:41.284Z,2.53
2022-10-30T07:25:09.841Z,2.73
2022-10-30T07:27:55.016Z,2.47
2022-10-30T07:30:43.067Z,3.47
2022-10-30T07:33:17.265Z,2.50
2022-10-30T07:36:01.919Z,3.27
2022-10-30T07:38:46.542Z,2.93
2022-10-30T07:41:34.648Z,3.30
2022-10-30T07:44:34.441Z,4.57
2022-10-30T07:47:34.475Z,3.90
2022-10-30T07:50:30.051Z,2.73
2022-10-30T07:52:57.776Z,2.23
2022-10-30T07:55:29.622Z,2.77
2022-10-30T07:58:15.725Z,4.33
2022-10-30T08:01:06.524Z,2.87
2022-10-30T08:03:35.403Z,3.57
2022-10-30T08:06:24.776Z,3.40
2022-10-30T08:08:55.429Z,2.20
2022-10-30T08:11:29.991Z,2.53
2022-10-30T08:14:00.388Z,2.50
2022-10-30T08:16:28.837Z,2.83
2022-10-30T08:18:58.291Z,3.73
2022-10-30T08:21:26.560Z,4.67
2022-10-30T08:24:14.476Z,2.23
2022-10-30T08:26:47.224Z,2.37
2022-10-30T08:29:15.128Z,2.67
2022-10-30T08:31:45.022Z,1.97
2022-10-30T08:34:26.598Z,1.87
2022-10-30T08:36:55.902Z,3.43
2022-10-30T08:39:25.195Z,2.40
2022-10-30T08:42:00.715Z,2.60
2022-10-30T08:44:34.711Z,2.47
2022-10-30T08:47:14.320Z,3.33
2022-10-30T08:49:42.501Z,2.63
2022-10-30T08:52:11.489Z,2.03
2022-10-30T08:54:40.537Z,2.20
2022-10-30T08:57:09.941Z,1.40
2022-10-30T08:59:40.465Z,2.00
2022-10-30T09:02:14.250Z,2.60
2022-10-30T09:05:01.035Z,1.70
2022-10-30T09:07:47.391Z,2.77
2022-10-30T09:10:33.846Z,2.63
2022-10-30T09:13:03.541Z,1.87
2022-10-30T09:15:32.168Z,2.63
2022-10-30T09:18:02.012Z,1.87
2022-10-30T09:20:30.794Z,2.83
2022-10-30T09:22:59.581Z,2.47
2022-10-30T09:25:27.960Z,2.10
2022-10-30T09:28:15.358Z,2.70
2022-10-30T09:31:18.493Z,2.60
2022-10-30T09:33:46.703Z,2.50
2022-10-30T09:36:35.100Z,2.67
2022-10-30T09:39:02.816Z,2.07
2022-10-30T09:41:55.789Z,2.60
2022-10-30T09:44:37.042Z,3.33
2022-10-30T09:47:23.049Z,4.27
2022-10-30T09:50:04.456Z,2.00
2022-10-30T09:52:48.191Z,2.97
2022-10-30T09:55:29.543Z,2.67
2022-10-30T09:58:05.449Z,2.65
2022-10-30T10:00:39.515Z,4.45
2022-10-30T10:03:28.211Z,2.25
2022-10-30T10:06:21.121Z,2.40
2022-10-30T10:09:08.058Z,1.75
2022-10-30T10:12:07.309Z,2.03
2022-10-30T10:14:38.481Z,1.90
2022-10-30T10:17:14.145Z,1.77
2022-10-30T10:19:49.517Z,2.72
2022-10-30T10:22:22.625Z,2.45
2022-10-30T10:24:50.841Z,2.55
2022-10-30T10:27:28.819Z,2.78
2022-10-30T10:30:05.255Z,2.55
2022-10-30T10:32:48.741Z,1.85
2022-10-30T10:35:35.654Z,4.18
2022-10-30T10:38:14.305Z,2.70
2022-10-30T10:40:54.918Z,2.13
2022-10-30T10:43:32.391Z,4.38
2022-10-30T10:46:23.158Z,2.30
2022-10-30T10:49:04.153Z,2.58
2022-10-30T10:51:37.206Z,2.05
2022-10-30T10:54:12.515Z,3.33
2022-10-30T10:56:43.633Z,4.40
2022-10-30T10:59:17.832Z,1.98
2022-10-30T11:01:50.861Z,3.42
2022-10-30T11:04:27.999Z,2.83
2022-10-30T11:06:57.379Z,2.53
2022-10-30T11:09:27.748Z,5.53
2022-10-30T11:11:56.260Z,2.92
2022-10-30T11:14:26.084Z,3.67
2022-10-30T11:17:11.962Z,2.20
2022-10-30T11:19:41.325Z,3.33
2022-10-30T11:22:20.149Z,2.28
2022-10-30T11:24:47.821Z,2.75
2022-10-30T11:27:25.651Z,2.22
2022-10-30T11:29:55.701Z,3.55
2022-10-30T11:32:27.175Z,1.73
2022-10-30T11:35:13.861Z,2.17
2022-10-30T11:37:43.312Z,3.90
2022-10-30T11:40:19.328Z,1.42
2022-10-30T11:42:49.441Z,3.75
2022-10-30T11:45:19.885Z,2.92
2022-10-30T11:47:48.325Z,3.20
2022-10-30T11:50:21.588Z,2.90
2022-10-30T11:52:51.550Z,3.00
2022-10-30T11:55:23.642Z,3.13
2022-10-30T11:57:53.204Z,2.17
2022-10-30T12:00:24.249Z,3.97
2022-10-30T12:02:54.618Z,2.38
2022-10-30T12:05:37.380Z,3.53
2022-10-30T12:08:19.565Z,3.08
2022-10-30T12:10:55.511Z,3.28
2022-10-30T12:13:24.881Z,2.17
2022-10-30T12:16:07.093Z,4.07
2022-10-30T12:18:35.562Z,3.28
2022-10-30T12:21:05.571Z,3.50
2022-10-30T12:23:34.382Z,2.22
2022-10-30T12:26:09.273Z,3.05
2022-10-30T12:28:37.533Z,3.50
2022-10-30T12:31:10.614Z,2.70
2022-10-30T12:33:43.459Z,3.45
2022-10-30T12:36:17.429Z,2.35
2022-10-30T12:38:48.444Z,3.40
2022-10-30T12:41:21.547Z,3.03
2022-10-30T12:43:57.437Z,2.10
2022-10-30T12:46:33.208Z,3.03
2022-10-30T12:49:11.773Z,1.95
2022-10-30T12:51:47.547Z,2.05
2022-10-30T12:54:24.335Z,3.15
2022-10-30T12:57:06.819Z,2.92
2022-10-30T12:59:42.174Z,3.22
2022-10-30T13:02:22.098Z,2.25
2022-10-30T13:04:57.782Z,3.13
2022-10-30T13:07:32.508Z,2.00
2022-10-30T13:10:14.208Z,2.92
2022-10-30T13:12:46.014Z,3.03
2022-10-30T13:15:22.834Z,1.88
2022-10-30T13:17:51.871Z,1.83
2022-10-30T13:20:20.215Z,1.35
2022-10-30T13:22:54.903Z,2.13
2022-10-30T13:25:29.241Z,2.40
2022-10-30T13:28:05.020Z,1.90
2022-10-30T13:30:38.233Z,3.83
2022-10-30T13:33:16.100Z,2.40
2022-10-30T13:35:52.210Z,2.58
2022-10-30T13:38:36.341Z,2.58
2022-10-30T13:41:15.418Z,3.08
2022-10-30T13:43:50.832Z,4.20
2022-10-30T13:46:28.131Z,4.55
2022-10-30T13:49:13.881Z,3.30
2022-10-30T13:51:45.305Z,3.40
2022-10-30T13:54:22.057Z,7.47
2022-10-30T13:56:51.716Z,6.30
2022-10-30T13:59:36.620Z,4.07
2022-10-30T14:02:15.706Z,1.95
2022-10-30T14:04:53.525Z,2.50
2022-10-30T14:07:31.887Z,3.38
2022-10-30T14:10:09.611Z,2.53
2022-10-30T14:13:06.484Z,1.55
2022-10-30T14:15:41.850Z,1.35
2022-10-30T14:18:26.097Z,1.90
2022-10-30T14:20:54.927Z,2.78
2022-10-30T14:23:25.033Z,3.05
2022-10-30T14:26:15.891Z,2.53
2022-10-30T14:28:45.471Z,3.00
2022-10-30T14:31:16.898Z,2.03
2022-10-30T14:33:50.225Z,1.85
2022-10-30T14:36:21.560Z,1.83
2022-10-30T14:39:00.236Z,3.33
2022-10-30T14:41:49.623Z,1.58
2022-10-30T14:44:25.643Z,3.33
2022-10-30T14:47:05.120Z,4.13
2022-10-30T14:49:45.324Z,1.65
2022-10-30T14:52:22.024Z,2.25
2022-10-30T14:54:57.610Z,1.67
2022-10-30T14:57:47.759Z,2.23
2022-10-30T15:00:41.029Z,2.80
2022-10-30T15:03:18.269Z,1.83
2022-10-30T15:05:52.677Z,1.13
2022-10-30T15:08:35.827Z,2.87
2022-10-30T15:11:32.856Z,1.57
2022-10-30T15:14:12.523Z,2.67
2022-10-30T15:16:52.046Z,2.80
2022-10-30T15:19:23.371Z,3.30
2022-10-30T15:21:54.607Z,2.47
2022-10-30T15:24:29.572Z,2.50
2022-10-30T15:27:01.458Z,2.83
2022-10-30T15:29:34.741Z,2.23
2022-10-30T15:32:04.385Z,3.17
2022-10-30T15:34:34.321Z,1.30
2022-10-30T15:37:12.066Z,1.30
2022-10-30T15:39:39.753Z,3.63
2022-10-30T15:42:07.748Z,2.20
2022-10-30T15:44:39.943Z,4.33
2022-10-30T15:47:16.112Z,2.70
2022-10-30T15:49:50.041Z,2.30
2022-10-30T15:52:23.218Z,2.40
2022-10-30T15:54:59.045Z,2.20
2022-10-30T15:58:01.131Z,3.23
2022-10-30T16:00:26.155Z,2.43
2022-10-30T16:03:04.885Z,2.63
2022-10-30T16:05:33.537Z,2.37
2022-10-30T16:08:03.310Z,1.77
2022-10-30T16:10:34.604Z,3.07
2022-10-30T16:13:03.949Z,3.00
2022-10-30T16:15:35.743Z,3.20
2022-10-30T16:18:20.509Z,4.07
2022-10-30T16:20:51.695Z,2.63
2022-10-30T16:23:21.823Z,4.73
2022-10-30T16:25:55.602Z,3.47
2022-10-30T16:28:29.307Z,2.23
2022-10-30T16:31:01.829Z,3.57
2022-10-30T16:33:31.627Z,2.57
2022-10-30T16:36:00.849Z,3.70
2022-10-30T16:38:32.660Z,3.33
2022-10-30T16:41:00.699Z,3.43
2022-10-30T16:43:30.793Z,3.87
2022-10-30T16:46:28.492Z,3.23
2022-10-30T16:49:00.127Z,2.40
2022-10-30T16:51:28.409Z,3.20
2022-10-30T16:53:56.831Z,4.97
2022-10-30T16:56:26.946Z,3.90
2022-10-30T16:58:58.871Z,2.63
2022-10-30T17:01:29.203Z,2.60
2022-10-30T17:03:58.914Z,2.53
2022-10-30T17:06:29.107Z,3.50
2022-10-30T17:09:00.156Z,3.60
2022-10-30T17:11:40.221Z,3.40
2022-10-30T17:14:19.025Z,3.10
2022-10-30T17:16:56.120Z,3.87
2022-10-30T17:19:40.423Z,3.60
2022-10-30T17:22:14.750Z,3.27
2022-10-30T17:24:42.926Z,2.50
2022-10-30T17:27:29.749Z,2.93
2022-10-30T17:29:57.539Z,3.63
2022-10-30T17:32:29.079Z,3.60
2022-10-30T17:35:01.902Z,2.83
2022-10-30T17:37:30.123Z,3.43
2022-10-30T17:39:57.792Z,4.30
2022-10-30T17:42:25.774Z,5.23
2022-10-30T17:44:53.586Z,3.77
2022-10-30T17:47:21.754Z,4.90
2022-10-30T17:49:50.879Z,4.73
2022-10-30T17:52:21.843Z,4.23
2022-10-30T17:54:49.635Z,5.53
2022-10-30T17:57:18.167Z,5.43
2022-10-30T17:59:45.837Z,4.73
2022-10-30T18:02:15.966Z,5.40
2022-10-30T18:04:44.420Z,7.30
2022-10-30T18:07:15.889Z,10.90
2022-10-30T18:09:44.420Z,9.63
2022-10-30T18:12:15.084Z,5.50
2022-10-30T18:14:45.384Z,5.53
2022-10-30T18:17:13.279Z,4.40
2022-10-30T18:19:41.252Z,4.47
2022-10-30T18:22:10.503Z,5.83
2022-10-30T18:24:40.132Z,5.40
2022-10-30T18:27:07.747Z,6.60
2022-10-30T18:29:36.005Z,4.17
2022-10-30T18:32:09.205Z,4.67
2022-10-30T18:34:38.386Z,3.63
2022-10-30T18:37:06.348Z,3.93
2022-10-30T18:39:34.522Z,3.43
2022-10-30T18:42:03.611Z,6.10
2022-10-30T18:44:31.763Z,3.23
2022-10-30T18:47:02.944Z,4.43
2022-10-30T18:49:33.647Z,5.27
2022-10-30T18:52:01.372Z,6.03
2022-10-30T18:54:29.781Z,7.50
2022-10-30T18:56:57.466Z,7.47
2022-10-30T18:59:27.153Z,5.67
2022-10-30T19:01:54.887Z,8.23
2022-10-30T19:04:22.978Z,4.83
2022-10-30T19:06:50.920Z,5.20
2022-10-30T19:09:19.056Z,3.87
2022-10-30T19:11:46.697Z,4.40
2022-10-30T19:14:15.968Z,5.50
2022-10-30T19:16:44.984Z,4.20
2022-10-30T19:19:15.190Z,3.50
2022-10-30T19:21:42.971Z,2.87
2022-10-30T19:24:15.078Z,4.23
2022-10-30T19:26:42.839Z,4.23
2022-10-30T19:29:10.829Z,5.60
2022-10-30T19:31:38.485Z,6.03
2022-10-30T19:34:07.521Z,4.77
2022-10-30T19:36:37.034Z,10.20
2022-10-30T19:39:10.403Z,12.10
2022-10-30T19:41:38.629Z,9.93
2022-10-30T19:44:07.626Z,8.23
2022-10-30T19:46:35.432Z,8.53
2022-10-30T19:49:17.355Z,8.50
2022-10-30T19:51:45.022Z,10.57
2022-10-30T19:54:12.685Z,8.47
2022-10-30T19:56:42.147Z,9.33
2022-10-30T19:59:10.479Z,5.57
2022-10-30T20:01:38.237Z,6.63
2022-10-30T20:04:06.316Z,6.57
2022-10-30T20:06:35.304Z,16.67
2022-10-30T20:09:03.450Z,12.33
2022-10-30T20:11:31.867Z,8.00
2022-10-30T20:13:59.940Z,5.90
2022-10-30T20:16:27.628Z,6.60
2022-10-30T20:18:55.603Z,7.03
2022-10-30T20:21:23.217Z,5.37
2022-10-30T20:23:52.673Z,7.63
2022-10-30T20:26:24.996Z,8.53
2022-10-30T20:28:53.801Z,8.93
2022-10-30T20:31:21.485Z,9.50
2022-10-30T20:33:49.222Z,9.23
2022-10-30T20:36:17.121Z,8.23
2022-10-30T20:38:44.900Z,7.47
2022-10-30T20:41:21.592Z,5.33
2022-10-30T20:43:50.162Z,4.97
2022-10-30T20:46:18.729Z,5.17
2022-10-30T20:48:46.410Z,8.67
2022-10-30T20:51:14.803Z,8.03
2022-10-30T20:53:42.552Z,7.63
2022-10-30T20:56:11.186Z,8.37
2022-10-30T20:58:40.646Z,7.80
2022-10-30T21:01:08.551Z,6.43
2022-10-30T21:03:36.256Z,7.77
2022-10-30T21:06:04.098Z,7.27
2022-10-30T21:08:32.802Z,7.63
2022-10-30T21:11:01.689Z,6.93
2022-10-30T21:13:30.251Z,6.63
2022-10-30T21:16:03.523Z,6.13
2022-10-30T21:18:32.391Z,6.57
2022-10-30T21:21:01.361Z,7.77
2022-10-30T21:23:29.210Z,5.20
2022-10-30T21:26:00.180Z,5.37
2022-10-30T21:28:28.136Z,5.33
2022-10-30T21:30:55.768Z,6.30
2022-10-30T21:33:25.431Z,5.80
2022-10-30T21:35:53.396Z,5.70
2022-10-30T21:38:21.007Z,4.70
2022-10-30T21:40:55.769Z,5.47
2022-10-30T21:43:23.425Z,4.77
2022-10-30T21:45:51.484Z,4.27
2022-10-30T21:48:19.340Z,4.27
2022-10-30T21:50:48.652Z,4.77
2022-10-30T21:53:16.273Z,7.53
2022-10-30T21:55:43.959Z,7.20
2022-10-30T21:58:11.583Z,5.20
2022-10-30T22:00:39.527Z,5.87
2022-10-30T22:03:07.215Z,5.57
2022-10-30T22:05:35.054Z,5.10
2022-10-30T22:08:04.052Z,6.63
2022-10-30T22:10:31.719Z,4.70
2022-10-30T22:12:59.410Z,5.03
2022-10-30T22:15:27.408Z,5.67
2022-10-30T22:17:55.012Z,5.63
2022-10-30T22:20:23.306Z,4.80
2022-10-30T22:22:50.990Z,5.07
2022-10-30T22:25:19.981Z,6.20
2022-10-30T22:27:48.263Z,5.17
2022-10-30T22:30:16.120Z,5.10
2022-10-30T22:32:43.755Z,5.10
2022-10-30T22:35:11.837Z,5.17
2022-10-30T22:37:39.441Z,4.43
2022-10-30T22:40:08.138Z,3.40
2022-10-30T22:42:37.342Z,4.23
2022-10-30T22:45:05.668Z,3.83
2022-10-30T22:47:33.292Z,4.53
2022-10-30T22:50:00.978Z,5.40
2022-10-30T22:52:28.601Z,5.30
2022-10-30T22:54:56.821Z,5.20
2022-10-30T22:57:24.534Z,5.17
2022-10-30T22:59:53.509Z,6.33
2022-10-30T23:02:21.559Z,4.20
2022-10-30T23:04:49.233Z,5.03
2022-10-30T23:07:18.105Z,4.17
2022-10-30T23:09:45.756Z,5.00
2022-10-30T23:12:13.390Z,6.20
2022-10-30T23:14:41.061Z,3.90
2022-10-30T23:17:10.388Z,3.60
2022-10-30T23:19:38.067Z,4.07
2022-10-30T23:22:06.035Z,3.93
2022-10-30T23:24:33.825Z,3.20
2022-10-30T23:27:01.779Z,3.83
2022-10-30T23:29:29.392Z,3.27
2022-10-30T23:31:57.036Z,3.80
2022-10-30T23:34:25.983Z,3.20
2022-10-30T23:36:57.707Z,3.43
2022-10-30T23:39:29.304Z,4.13
2022-10-30T23:41:57.285Z,2.43
2022-10-30T23:44:24.975Z,3.13
2022-10-30T23:46:52.619Z,3.27
2022-10-30T23:49:20.331Z,2.97
2022-10-30T23:51:49.652Z,3.83
2022-10-30T23:54:17.295Z,3.27
2022-10-30T23:56:45.313Z,2.93
2022-10-30T23:59:12.948Z,3.13
